createdAt,value
2023-02-11T00:02:10.108Z,54.25
2023-02-11T00:05:12.624Z,51.42
2023-02-11T00:08:17.076Z,54.63
2023-02-11T00:11:22.171Z,47.35
2023-02-11T00:14:24.747Z,55.95
2023-02-11T00:17:28.312Z,58.50
2023-02-11T00:20:30.626Z,55.42
2023-02-11T00:23:33.110Z,53.00
2023-02-11T00:26:36.581Z,51.20
2023-02-11T00:29:39.793Z,53.67
2023-02-11T00:32:43.038Z,43.13
2023-02-11T00:35:45.554Z,51.97
2023-02-11T00:38:49.202Z,52.42
2023-02-11T00:41:51.972Z,50.30
2023-02-11T00:44:54.512Z,56.53
2023-02-11T00:47:57.504Z,54.80
2023-02-11T00:50:59.957Z,37.90
2023-02-11T00:54:02.458Z,50.72
2023-02-11T00:57:05.022Z,55.22
2023-02-11T01:00:09.096Z,59.13
2023-02-11T01:06:14.416Z,51.97
2023-02-11T01:09:17.109Z,53.08
2023-02-11T01:12:19.833Z,50.83
2023-02-11T01:15:23.117Z,49.90
2023-02-11T01:18:25.929Z,54.13
2023-02-11T01:21:28.357Z,54.63
2023-02-11T01:24:31.008Z,50.70
2023-02-11T01:27:34.849Z,51.85
2023-02-11T01:30:37.539Z,63.35
2023-02-11T01:33:40.323Z,54.42
2023-02-11T01:36:43.425Z,52.55
2023-02-11T01:39:46.058Z,51.60
2023-02-11T01:42:50.962Z,52.88
2023-02-11T01:46:36.379Z,57.13
2023-02-11T01:49:45.658Z,49.45
2023-02-11T01:52:48.242Z,46.60
2023-02-11T01:56:11.441Z,49.60
2023-02-11T01:59:24.648Z,47.15
2023-02-11T02:02:35.566Z,53.65
2023-02-11T02:06:08.882Z,49.88
2023-02-11T02:09:26.674Z,44.80
2023-02-11T02:12:31.143Z,50.95
2023-02-11T02:15:39.369Z,40.70
2023-02-11T02:19:00.435Z,43.70
2023-02-11T02:22:30.777Z,41.92
2023-02-11T02:25:48.325Z,45.38
2023-02-11T02:29:17.206Z,38.83
2023-02-11T02:32:47.184Z,41.92
2023-02-11T02:36:02.325Z,38.08
2023-02-11T02:39:12.370Z,47.47
2023-02-11T02:42:15.697Z,44.17
2023-02-11T02:45:18.447Z,39.40
2023-02-11T02:48:33.007Z,40.22
2023-02-11T02:51:43.696Z,45.42
2023-02-11T02:55:14.478Z,42.58
2023-02-11T02:58:31.863Z,39.95
2023-02-11T03:01:34.433Z,42.15
2023-02-11T03:05:03.684Z,37.92
2023-02-11T03:08:10.260Z,39.85
2023-02-11T03:11:13.270Z,39.83
2023-02-11T03:14:19.155Z,43.78
2023-02-11T03:17:22.658Z,40.42
2023-02-11T03:20:25.971Z,41.25
2023-02-11T03:23:38.233Z,43.58
2023-02-11T03:26:53.021Z,43.53
2023-02-11T03:30:01.976Z,40.63
2023-02-11T03:33:18.285Z,43.40
2023-02-11T03:36:25.603Z,41.33
2023-02-11T03:39:40.835Z,39.92
2023-02-11T03:42:50.781Z,38.97
2023-02-11T03:45:54.657Z,39.50
2023-02-11T03:49:10.246Z,40.35
2023-02-11T03:52:14.202Z,39.70
2023-02-11T03:55:20.431Z,45.80
2023-02-11T03:58:23.359Z,45.20
2023-02-11T04:01:25.869Z,42.28
2023-02-11T04:04:28.834Z,43.42
2023-02-11T04:07:31.301Z,44.67
2023-02-11T04:10:33.861Z,47.42
2023-02-11T04:13:36.349Z,49.40
2023-02-11T04:16:38.768Z,47.47
2023-02-11T04:19:41.257Z,43.13
2023-02-11T04:22:43.657Z,49.38
2023-02-11T04:25:46.013Z,46.80
2023-02-11T04:28:49.135Z,37.30
2023-02-11T04:31:52.152Z,48.45
2023-02-11T04:34:55.469Z,39.47
2023-02-11T04:37:58.041Z,47.10
2023-02-11T04:41:00.675Z,53.20
2023-02-11T04:44:03.688Z,57.38
2023-02-11T04:47:06.288Z,40.47
2023-02-11T04:50:08.857Z,53.08
2023-02-11T04:53:11.373Z,50.05
2023-02-11T04:56:13.975Z,53.38
2023-02-11T04:59:16.562Z,52.75
2023-02-11T05:02:19.255Z,50.70
2023-02-11T05:05:21.892Z,58.50
2023-02-11T05:08:24.149Z,58.08
2023-02-11T05:11:26.904Z,60.90
2023-02-11T05:14:29.410Z,62.95
2023-02-11T05:17:31.774Z,63.35
2023-02-11T05:20:34.364Z,63.75
2023-02-11T05:23:37.223Z,65.20
2023-02-11T05:26:39.763Z,63.42
2023-02-11T05:29:42.596Z,63.35
2023-02-11T05:32:45.019Z,67.07
2023-02-11T05:35:47.687Z,69.50
2023-02-11T05:38:51.070Z,76.65
2023-02-11T05:41:53.528Z,64.65
2023-02-11T05:44:55.864Z,73.60
2023-02-11T05:47:58.689Z,65.85
2023-02-11T05:51:01.289Z,71.18
2023-02-11T05:54:03.879Z,68.65
2023-02-11T05:57:06.397Z,70.95
2023-02-11T06:00:09.817Z,76.03
2023-02-11T06:03:14.809Z,73.07
2023-02-11T06:06:17.748Z,75.70
2023-02-11T06:09:20.222Z,63.93
2023-02-11T06:12:22.710Z,69.35
2023-02-11T06:15:25.279Z,80.63
2023-02-11T06:18:27.829Z,76.28
2023-02-11T06:21:42.733Z,72.60
2023-02-11T06:25:00.426Z,70.60
2023-02-11T06:28:04.216Z,73.70
2023-02-11T06:31:07.737Z,78.53
2023-02-11T06:34:10.591Z,76.45
2023-02-11T06:37:13.134Z,73.95
2023-02-11T06:40:15.619Z,76.90
2023-02-11T06:43:17.967Z,70.35
2023-02-11T06:46:20.409Z,77.35
2023-02-11T06:49:23.279Z,73.05
2023-02-11T06:52:25.949Z,80.30
2023-02-11T06:55:28.437Z,73.60
2023-02-11T06:58:30.981Z,81.00
2023-02-11T07:01:33.359Z,81.50
2023-02-11T07:04:35.796Z,80.53
2023-02-11T07:07:38.128Z,76.43
2023-02-11T07:10:40.955Z,84.00
2023-02-11T07:13:43.835Z,65.50
2023-02-11T07:16:46.815Z,82.15
2023-02-11T07:19:49.622Z,67.03
2023-02-11T07:22:52.048Z,81.75
2023-02-11T07:25:54.416Z,82.50
2023-02-11T07:28:57.006Z,79.28
2023-02-11T07:31:59.601Z,80.32
2023-02-11T07:35:05.036Z,90.05
2023-02-11T07:38:07.588Z,76.30
2023-02-11T07:41:12.691Z,78.65
2023-02-11T07:44:15.465Z,77.57
2023-02-11T07:47:17.894Z,83.68
2023-02-11T07:50:20.217Z,86.05
2023-02-11T07:53:22.672Z,77.32
2023-02-11T07:56:25.261Z,83.03
2023-02-11T07:59:27.794Z,81.85
2023-02-11T08:02:30.426Z,86.25
2023-02-11T08:05:33.171Z,73.63
2023-02-11T08:08:36.910Z,70.03
2023-02-11T08:11:39.350Z,66.85
2023-02-11T08:14:41.958Z,77.78
2023-02-11T08:17:44.352Z,70.57
2023-02-11T08:20:46.914Z,73.25
2023-02-11T08:23:49.985Z,73.60
2023-02-11T08:26:52.372Z,73.60
2023-02-11T08:29:55.728Z,78.13
2023-02-11T08:32:58.497Z,72.25
2023-02-11T08:36:02.051Z,71.17
2023-02-11T08:39:22.184Z,95.28
2023-02-11T08:42:25.465Z,89.38
2023-02-11T08:45:28.257Z,85.43
2023-02-11T08:48:31.036Z,85.78
2023-02-11T08:51:33.752Z,95.15
2023-02-11T08:54:36.712Z,84.05
2023-02-11T08:57:39.453Z,80.72
2023-02-11T09:00:44.148Z,82.70
2023-02-11T09:03:46.997Z,87.50
2023-02-11T09:06:49.831Z,86.05
2023-02-11T09:09:52.409Z,79.57
2023-02-11T09:12:54.876Z,91.95
2023-02-11T09:15:57.793Z,95.78
2023-02-11T09:19:01.917Z,86.68
2023-02-11T09:22:04.506Z,85.47
2023-02-11T09:25:07.318Z,89.68
2023-02-11T09:28:10.028Z,101.65
2023-02-11T09:31:16.399Z,86.00
2023-02-11T09:34:19.017Z,90.78
2023-02-11T09:37:21.429Z,83.95
2023-02-11T09:40:24.053Z,85.43
2023-02-11T09:43:37.550Z,92.57
2023-02-11T09:46:42.807Z,72.88
2023-02-11T09:49:47.958Z,90.32
2023-02-11T09:53:11.459Z,86.40
2023-02-11T09:56:15.514Z,94.07
2023-02-11T09:59:19.762Z,84.03
2023-02-11T10:02:27.986Z,98.47
2023-02-11T10:06:05.699Z,94.00
2023-02-11T10:09:08.017Z,93.18
2023-02-11T10:12:34.568Z,96.85
2023-02-11T10:15:44.161Z,107.80
2023-02-11T10:19:07.407Z,101.63
2023-02-11T10:22:09.968Z,112.28
2023-02-11T10:25:37.727Z,110.60
2023-02-11T10:28:41.047Z,100.75
2023-02-11T10:31:44.508Z,98.60
2023-02-11T10:34:47.162Z,108.47
2023-02-11T10:37:50.177Z,106.90
2023-02-11T10:40:53.131Z,74.70
2023-02-11T10:43:56.297Z,104.95
2023-02-11T10:47:02.731Z,98.65
2023-02-11T10:50:25.750Z,96.90
2023-02-11T10:53:28.312Z,102.30
2023-02-11T10:56:33.744Z,97.90
2023-02-11T10:59:40.477Z,97.00
2023-02-11T11:02:44.740Z,101.32
2023-02-11T11:05:52.433Z,115.03
2023-02-11T11:08:56.298Z,104.32
2023-02-11T11:11:58.711Z,101.38
2023-02-11T11:15:19.416Z,109.90
2023-02-11T11:18:23.473Z,104.03
2023-02-11T11:21:29.752Z,108.13
2023-02-11T11:24:34.730Z,93.00
2023-02-11T11:27:37.919Z,97.43
2023-02-11T11:30:43.003Z,104.78
2023-02-11T11:33:46.887Z,87.10
2023-02-11T11:36:51.180Z,96.20
2023-02-11T11:40:05.055Z,95.53
2023-02-11T11:43:23.357Z,85.38
2023-02-11T11:46:39.190Z,83.63
2023-02-11T11:50:09.435Z,90.65
2023-02-11T11:53:16.972Z,77.10
2023-02-11T11:56:28.923Z,92.45
2023-02-11T11:59:32.884Z,86.57
2023-02-11T12:02:38.217Z,87.38
2023-02-11T12:06:07.781Z,72.63
2023-02-11T12:09:30.774Z,81.20
2023-02-11T12:12:50.777Z,83.53
2023-02-11T12:16:20.185Z,72.35
2023-02-11T12:19:43.818Z,66.68
2023-02-11T12:22:52.964Z,58.20
2023-02-11T12:26:16.164Z,73.85
2023-02-11T12:29:44.972Z,70.97
2023-02-11T12:32:56.547Z,67.43
2023-02-11T12:36:28.402Z,65.35
2023-02-11T12:39:52.768Z,64.60
2023-02-11T12:43:16.905Z,64.28
2023-02-11T12:46:23.331Z,49.47
2023-02-11T12:49:47.551Z,62.25
2023-02-11T12:52:54.417Z,58.97
2023-02-11T12:56:02.574Z,50.80
2023-02-11T12:59:08.036Z,53.95
2023-02-11T13:02:23.029Z,55.70
2023-02-11T13:05:27.101Z,43.10
2023-02-11T13:08:40.401Z,51.33
2023-02-11T13:11:52.150Z,44.85
2023-02-11T13:14:59.364Z,42.78
2023-02-11T13:18:08.731Z,48.38
2023-02-11T13:21:17.978Z,43.85
2023-02-11T13:24:20.501Z,44.58
2023-02-11T13:27:31.338Z,41.50
2023-02-11T13:30:39.660Z,49.95
2023-02-11T13:33:46.057Z,41.78
2023-02-11T13:36:56.551Z,41.30
2023-02-11T13:40:06.871Z,37.15
2023-02-11T13:43:24.159Z,40.45
2023-02-11T13:46:27.532Z,37.58
2023-02-11T13:49:35.767Z,33.08
2023-02-11T13:52:39.188Z,35.85
2023-02-11T13:55:44.707Z,40.08
2023-02-11T13:58:50.204Z,49.35
2023-02-11T14:02:40.359Z,37.30
2023-02-11T14:06:26.986Z,35.47
2023-02-11T14:09:39.015Z,33.22
2023-02-11T14:12:41.374Z,34.38
2023-02-11T14:15:47.094Z,30.50
2023-02-11T14:18:49.456Z,37.47
2023-02-11T14:21:52.464Z,36.13
2023-02-11T14:25:06.614Z,31.77
2023-02-11T14:28:22.713Z,32.35
2023-02-11T14:31:28.458Z,37.72
2023-02-11T14:34:54.691Z,31.48
2023-02-11T14:38:16.429Z,31.42
2023-02-11T14:41:22.389Z,38.13
2023-02-11T14:44:29.483Z,33.92
2023-02-11T14:47:41.675Z,31.45
2023-02-11T14:50:51.089Z,31.55
2023-02-11T14:53:59.538Z,40.78
2023-02-11T14:57:19.552Z,31.48
2023-02-11T15:00:27.561Z,30.95
2023-02-11T15:03:43.438Z,34.15
2023-02-11T15:06:49.930Z,29.70
2023-02-11T15:09:54.274Z,41.33
2023-02-11T15:12:57.338Z,30.63
2023-02-11T15:16:11.265Z,31.23
2023-02-11T15:19:36.118Z,30.50
2023-02-11T15:22:39.502Z,31.42
2023-02-11T15:25:51.463Z,40.40
2023-02-11T15:28:53.979Z,49.28
2023-02-11T15:32:29.127Z,40.45
2023-02-11T15:35:36.868Z,41.08
2023-02-11T15:38:41.155Z,35.65
2023-02-11T15:41:44.578Z,35.20
2023-02-11T15:44:56.388Z,30.45
2023-02-11T15:48:17.973Z,47.90
2023-02-11T15:51:29.779Z,39.70
2023-02-11T15:54:33.016Z,33.83
2023-02-11T15:57:37.073Z,31.10
2023-02-11T16:00:48.406Z,45.35
2023-02-11T16:03:51.930Z,33.00
2023-02-11T16:06:55.941Z,39.38
2023-02-11T16:09:59.331Z,34.33
2023-02-11T16:13:08.239Z,38.90
2023-02-11T16:16:25.345Z,38.03
2023-02-11T16:19:29.114Z,41.35
2023-02-11T16:22:36.533Z,42.33
2023-02-11T16:25:43.135Z,60.65
2023-02-11T16:28:46.019Z,48.00
2023-02-11T16:31:50.521Z,39.67
2023-02-11T16:34:55.574Z,40.50
2023-02-11T16:37:58.728Z,42.97
2023-02-11T16:41:01.660Z,42.03
2023-02-11T16:44:05.040Z,43.15
2023-02-11T16:47:11.405Z,37.17
2023-02-11T16:50:22.870Z,38.78
2023-02-11T16:53:26.149Z,43.08
2023-02-11T16:56:29.450Z,33.55
2023-02-11T16:59:32.323Z,35.47
2023-02-11T17:02:36.894Z,48.75
2023-02-11T17:05:58.058Z,51.05
2023-02-11T17:09:00.861Z,42.55
2023-02-11T17:12:03.594Z,44.65
2023-02-11T17:15:07.653Z,42.78
2023-02-11T17:18:14.447Z,41.33
2023-02-11T17:21:17.657Z,32.47
2023-02-11T17:24:22.010Z,27.83
2023-02-11T17:27:24.930Z,37.35
2023-02-11T17:30:27.778Z,29.75
2023-02-11T17:33:30.425Z,34.58
2023-02-11T17:36:33.440Z,39.33
2023-02-11T17:39:37.172Z,39.53
2023-02-11T17:42:39.605Z,37.25
2023-02-11T17:45:42.959Z,31.25
2023-02-11T17:48:45.588Z,41.22
2023-02-11T17:51:48.067Z,47.90
2023-02-11T17:54:51.662Z,32.47
2023-02-11T17:57:54.089Z,39.90
2023-02-11T18:00:59.369Z,39.10
2023-02-11T18:04:02.099Z,40.05
2023-02-11T18:07:04.917Z,42.60
2023-02-11T18:10:08.760Z,62.20
2023-02-11T18:13:11.265Z,50.15
2023-02-11T18:16:15.983Z,57.10
2023-02-11T18:19:19.303Z,59.88
2023-02-11T18:22:21.744Z,63.23
2023-02-11T18:25:24.326Z,50.97
2023-02-11T18:28:26.780Z,42.45
2023-02-11T18:31:29.391Z,42.55
2023-02-11T18:34:33.234Z,40.80
2023-02-11T18:37:35.972Z,43.40
2023-02-11T18:40:41.590Z,38.08
2023-02-11T18:43:44.011Z,32.75
2023-02-11T18:46:46.860Z,21.42
2023-02-11T18:49:49.378Z,23.23
2023-02-11T18:52:51.866Z,29.83
2023-02-11T18:55:55.174Z,24.52
2023-02-11T18:59:01.353Z,17.92
2023-02-11T19:02:04.015Z,16.30
2023-02-11T19:05:06.807Z,12.48
2023-02-11T19:08:09.301Z,9.57
2023-02-11T19:11:12.066Z,12.95
2023-02-11T19:14:16.089Z,10.55
2023-02-11T19:20:21.172Z,9.07
2023-02-11T19:23:27.953Z,6.95
2023-02-11T19:26:31.680Z,6.57
2023-02-11T19:29:38.546Z,9.63
2023-02-11T19:32:43.188Z,5.45
2023-02-11T19:35:48.538Z,5.40
2023-02-11T19:38:55.360Z,5.80
2023-02-11T19:41:59.148Z,5.70
2023-02-11T19:45:01.744Z,8.45
2023-02-11T19:48:04.318Z,4.57
2023-02-11T19:51:13.308Z,5.55
2023-02-11T19:54:15.854Z,7.82
2023-02-11T19:57:18.346Z,5.20
2023-02-11T20:00:21.341Z,3.70
2023-02-11T20:03:23.701Z,8.52
2023-02-11T20:06:29.186Z,5.68
2023-02-11T20:09:32.064Z,5.13
2023-02-11T20:12:34.486Z,13.48
2023-02-11T20:15:36.850Z,15.82
2023-02-11T20:18:39.925Z,13.95
2023-02-11T20:21:43.908Z,16.77
2023-02-11T20:24:47.887Z,22.25
2023-02-11T20:27:50.371Z,42.45
2023-02-11T20:30:57.443Z,20.38
2023-02-11T20:34:01.307Z,13.27
2023-02-11T20:37:04.196Z,6.75
2023-02-11T20:40:07.706Z,11.30
2023-02-11T20:43:10.210Z,7.15
2023-02-11T20:46:14.494Z,6.57
2023-02-11T20:49:21.035Z,5.85
2023-02-11T20:52:23.423Z,3.83
2023-02-11T20:55:25.823Z,7.65
2023-02-11T20:58:28.085Z,7.40
2023-02-11T21:01:33.043Z,5.57
2023-02-11T21:04:35.522Z,7.15
2023-02-11T21:07:39.164Z,4.20
2023-02-11T21:10:41.752Z,4.07
2023-02-11T21:13:45.436Z,5.85
2023-02-11T21:19:51.330Z,4.72
2023-02-11T21:22:53.953Z,5.55
2023-02-11T21:25:57.278Z,7.50
2023-02-11T21:28:59.749Z,3.90
2023-02-11T21:32:02.320Z,8.63
2023-02-11T21:35:04.835Z,6.57
2023-02-11T21:38:07.088Z,7.32
2023-02-11T21:41:09.668Z,8.00
2023-02-11T21:44:12.094Z,7.65
2023-02-11T21:47:14.369Z,5.22
2023-02-11T21:50:16.944Z,6.07
2023-02-11T21:53:19.806Z,9.23
2023-02-11T21:56:22.200Z,6.18
2023-02-11T21:59:24.531Z,5.35
2023-02-11T22:02:26.915Z,5.45
2023-02-11T22:05:29.224Z,5.47
2023-02-11T22:08:31.522Z,5.43
2023-02-11T22:11:33.922Z,5.32
2023-02-11T22:14:37.227Z,5.88
2023-02-11T22:17:39.541Z,2.97
2023-02-11T22:20:41.862Z,6.70
2023-02-11T22:23:44.769Z,7.13
2023-02-11T22:26:47.017Z,6.25
2023-02-11T22:29:49.351Z,7.63
2023-02-11T22:32:51.918Z,8.00
2023-02-11T22:36:00.778Z,7.88
2023-02-11T22:39:08.517Z,8.00
2023-02-11T22:42:11.016Z,10.02
2023-02-11T22:45:13.445Z,10.00
2023-02-11T22:48:15.768Z,5.65
2023-02-11T22:51:23.372Z,7.50
2023-02-11T22:54:26.227Z,3.88
2023-02-11T22:57:29.548Z,6.18
2023-02-11T23:00:40.353Z,6.50
2023-02-11T23:03:43.625Z,7.53
2023-02-11T23:06:47.739Z,6.47
2023-02-11T23:09:50.361Z,5.43
2023-02-11T23:12:52.767Z,8.18
2023-02-11T23:15:55.594Z,8.77
2023-02-11T23:19:04.175Z,6.45
2023-02-11T23:22:06.813Z,14.57
2023-02-11T23:25:09.174Z,8.07
2023-02-11T23:28:12.677Z,11.13
2023-02-11T23:31:16.255Z,9.48
2023-02-11T23:34:24.098Z,8.43
2023-02-11T23:37:26.878Z,10.30
2023-02-11T23:40:29.269Z,10.68
2023-02-11T23:43:31.720Z,11.35
2023-02-11T23:46:34.402Z,14.38
2023-02-11T23:49:36.840Z,15.30
2023-02-11T23:52:39.293Z,9.30
2023-02-11T23:55:43.449Z,7.22
2023-02-11T23:58:48.771Z,7.85
